Terminal Aerodrome Forecast
Issued by NWS Cleveland, OH

Home | Current Version | Previous Version | Graphics & Text | Print | Product List | Glossary On
Versions: 1 2 3 4 5 6 7 8 9 10 11 12 13 14 15 16 17 18 19
000
FTUS41 KCLE 171133
TAFCAK
TAF
KCAK 171133Z 1712/1812 13004KT P6SM SCT200
     FM171400 18008KT P6SM BKN100
     FM171500 20010KT P6SM SCT030 BKN080
      TEMPO 1715/1719 3SM -TSRA OVC030CB
     FM171900 20012G20KT P6SM SCT035 BKN050
      TEMPO 1719/1723 3SM -TSRA OVC035CB
     FM172300 20010G20KT P6SM VCTS SCT040CB BKN060
     FM180300 22008KT P6SM SCT060 BKN200=

USA.gov is the U.S. government's official web portal to all federal, state and local government web resources and services.